Time;durP1;ratioP1;P1;durP2;ratioP2;P2;SDS_P1;SDS_P2;PMS_P1;PMS_P2;Temp;Humidity;BMP_temperature;BMP_pressure;BME280_temperature;BME280_humidity;BME280_pressure;Samples;Min_cycle;Max_cycle;Signal;HPM_P1;HPM_P2
2024/02/01 00:01:03;;;;;;;12.00;7.40;;;7.00;1.00;;;;;;5045092;28;20495;-81
2024/02/01 00:03:30;;;;;;;9.57;7.13;;;7.10;1.00;;;;;;5050170;28;20202;-81
2024/02/01 00:05:57;;;;;;;13.50;8.00;;;7.10;1.00;;;;;;5044783;28;20231;-81
2024/02/01 00:08:24;;;;;;;15.30;7.53;;;7.10;1.00;;;;;;5041179;28;20223;-79
2024/02/01 00:10:52;;;;;;;13.93;7.00;;;7.10;1.00;;;;;;5049190;28;20211;-80
2024/02/01 00:13:19;;;;;;;14.80;7.90;;;7.10;1.00;;;;;;5048598;28;20211;-80
2024/02/01 00:15:45;;;;;;;12.57;7.33;;;7.10;1.00;;;;;;5049619;28;20263;-80
2024/02/01 00:18:12;;;;;;;12.13;8.00;;;7.10;1.00;;;;;;5049011;28;20400;-80
2024/02/01 00:20:39;;;;;;;14.60;7.10;;;7.10;1.00;;;;;;5048262;28;20214;-81
2024/02/01 00:23:06;;;;;;;13.00;7.47;;;7.10;1.00;;;;;;5047699;28;20494;-80
2024/02/01 00:25:32;;;;;;;13.60;7.97;;;7.10;1.00;;;;;;5045486;28;20207;-80
2024/02/01 00:28:02;;;;;;;13.00;7.50;;;7.20;1.00;;;;;;5051582;28;20195;-81
2024/02/01 00:30:29;;;;;;;10.57;7.20;;;7.10;1.00;;;;;;5049200;28;20826;-80
2024/02/01 00:32:56;;;;;;;11.00;7.30;;;7.10;1.00;;;;;;5051344;28;20199;-79
2024/02/01 00:35:23;;;;;;;12.53;8.10;;;7.20;1.00;;;;;;5048519;28;20270;-81
2024/02/01 00:37:49;;;;;;;11.70;7.97;;;7.20;1.00;;;;;;5047312;28;20231;-80
2024/02/01 00:40:17;;;;;;;17.67;8.13;;;7.20;1.00;;;;;;5047597;28;20495;-81
2024/02/01 00:42:43;;;;;;;13.20;8.23;;;7.20;1.00;;;;;;5047760;28;20211;-81
2024/02/01 00:45:12;;;;;;;15.00;9.27;;;7.30;99.90;;;;;;5047472;28;20200;-80
2024/02/01 00:47:38;;;;;;;15.63;8.33;;;7.20;99.90;;;;;;5047868;28;20219;-80
2024/02/01 00:50:06;;;;;;;13.03;8.20;;;7.10;1.00;;;;;;5044545;28;20204;-81
2024/02/01 00:52:33;;;;;;;14.90;9.00;;;7.00;1.00;;;;;;5052270;28;20207;-82
2024/02/01 00:54:59;;;;;;;12.07;8.30;;;7.00;1.00;;;;;;5052401;28;20198;-81
2024/02/01 00:57:26;;;;;;;13.80;9.10;;;6.80;65.30;;;;;;5044861;28;20231;-81
2024/02/01 00:59:53;;;;;;;15.03;9.37;;;7.00;99.90;;;;;;5051589;28;20673;-80
2024/02/01 01:02:21;;;;;;;14.37;9.23;;;6.80;1.00;;;;;;5046113;28;20203;-81
2024/02/01 01:04:48;;;;;;;16.47;10.17;;;6.80;1.00;;;;;;5049573;28;20203;-82
2024/02/01 01:07:15;;;;;;;14.97;9.23;;;6.70;1.00;;;;;;5051377;28;20215;-81
2024/02/01 01:09:41;;;;;;;16.63;9.33;;;6.70;99.90;;;;;;5047172;28;20214;-81
2024/02/01 01:12:08;;;;;;;16.93;9.77;;;6.60;1.00;;;;;;5049991;28;20206;-81
2024/02/01 01:14:35;;;;;;;16.53;10.10;;;6.60;1.00;;;;;;5048326;28;20286;-81
2024/02/01 01:17:02;;;;;;;17.93;10.37;;;6.60;99.90;;;;;;5052536;28;20225;-81
2024/02/01 01:19:30;;;;;;;17.70;9.90;;;6.60;1.00;;;;;;5047735;28;21457;-82
2024/02/01 01:21:58;;;;;;;17.23;10.57;;;6.50;18.50;;;;;;5054972;28;20206;-80
2024/02/01 01:24:25;;;;;;;16.93;10.20;;;6.50;99.90;;;;;;5048656;28;20225;-82
2024/02/01 01:26:52;;;;;;;16.73;10.73;;;6.40;1.00;;;;;;5051563;28;20227;-82
2024/02/01 01:29:19;;;;;;;16.63;10.73;;;6.40;1.00;;;;;;5054746;28;20205;-82
2024/02/01 01:31:46;;;;;;;16.97;11.03;;;6.40;65.70;;;;;;5049913;28;20203;-81
2024/02/01 01:34:13;;;;;;;18.77;10.97;;;6.40;99.90;;;;;;5053493;28;20230;-81
2024/02/01 01:36:42;;;;;;;18.80;10.63;;;6.30;1.00;;;;;;5046534;28;20226;-82
2024/02/01 01:39:10;;;;;;;17.20;11.10;;;6.30;99.90;;;;;;5047342;28;20207;-81
2024/02/01 01:41:36;;;;;;;18.50;11.37;;;6.60;29.70;;;;;;5052962;28;20582;-81
2024/02/01 01:44:03;;;;;;;17.77;11.00;;;6.30;1.00;;;;;;5047649;28;20206;-81
2024/02/01 01:46:31;;;;;;;21.47;13.87;;;6.30;99.90;;;;;;5051513;28;20318;-82
2024/02/01 01:48:58;;;;;;;17.97;10.60;;;6.30;99.90;;;;;;5052043;28;20206;-81
2024/02/01 01:51:25;;;;;;;18.03;10.50;;;6.60;1.00;;;;;;5051096;28;20669;-82
2024/02/01 01:53:56;;;;;;;18.17;11.33;;;6.30;1.00;;;;;;5057805;28;20213;-82
2024/02/01 01:56:23;;;;;;;16.70;10.67;;;6.30;1.00;;;;;;5056373;28;20235;-81
2024/02/01 01:58:51;;;;;;;18.07;11.13;;;6.30;1.00;;;;;;5056548;28;20209;-81
2024/02/01 02:01:19;;;;;;;17.03;11.43;;;6.30;1.00;;;;;;5055347;28;20291;-80
2024/02/01 02:03:48;;;;;;;15.70;10.80;;;6.30;1.00;;;;;;5056585;28;20202;-80
2024/02/01 02:06:15;;;;;;;15.60;10.20;;;6.30;1.00;;;;;;5053697;28;20219;-80
2024/02/01 02:08:42;;;;;;;14.47;9.80;;;6.30;99.90;;;;;;5051842;28;20211;-81
2024/02/01 02:11:11;;;;;;;14.57;9.50;;;6.30;99.90;;;;;;5052719;28;20217;-80
2024/02/01 02:13:38;;;;;;;13.73;9.37;;;6.30;99.90;;;;;;5047411;28;20202;-80
2024/02/01 02:16:05;;;;;;;17.30;9.87;;;6.30;99.90;;;;;;5052347;28;20237;-81
2024/02/01 02:18:32;;;;;;;15.93;10.33;;;6.30;99.90;;;;;;5055008;28;20321;-80
2024/02/01 02:21:01;;;;;;;15.70;9.63;;;6.30;99.90;;;;;;5054431;28;20206;-80
2024/02/01 02:23:30;;;;;;;15.63;9.43;;;6.40;99.90;;;;;;5049962;28;20199;-81
2024/02/01 02:25:57;;;;;;;16.23;9.90;;;6.40;99.90;;;;;;5053029;28;20230;-80
2024/02/01 02:28:23;;;;;;;18.33;10.43;;;6.30;99.90;;;;;;5052700;28;20230;-80
2024/02/01 02:30:50;;;;;;;13.60;9.13;;;6.40;99.90;;;;;;5055398;28;20213;-80
2024/02/01 02:33:17;;;;;;;16.23;9.57;;;6.30;99.90;;;;;;5055942;28;20202;-81
2024/02/01 02:35:44;;;;;;;14.93;9.63;;;6.40;99.90;;;;;;5049524;28;20203;-81
2024/02/01 02:38:11;;;;;;;14.97;9.30;;;6.40;99.90;;;;;;5046547;28;20630;-80
2024/02/01 02:40:39;;;;;;;12.10;8.13;;;6.40;99.90;;;;;;5055883;28;20206;-80
2024/02/01 02:43:06;;;;;;;12.87;8.77;;;6.60;99.90;;;;;;5055662;28;20206;-80
2024/02/01 02:45:32;;;;;;;14.17;9.30;;;6.40;99.90;;;;;;5049793;28;20574;-80
2024/02/01 02:47:59;;;;;;;11.73;7.70;;;6.40;99.90;;;;;;5041019;28;20203;-79
2024/02/01 02:50:26;;;;;;;13.33;9.27;;;6.50;99.90;;;;;;5051788;28;20210;-80
2024/02/01 02:52:53;;;;;;;14.97;9.13;;;6.50;99.90;;;;;;5051966;28;20205;-80
2024/02/01 02:55:20;;;;;;;13.63;8.67;;;6.50;99.90;;;;;;5052571;28;20203;-80
2024/02/01 02:57:48;;;;;;;13.37;8.53;;;6.50;99.90;;;;;;5051874;28;20237;-80
2024/02/01 03:00:19;;;;;;;11.97;8.23;;;6.50;99.90;;;;;;5049778;28;20210;-80
2024/02/01 03:02:48;;;;;;;13.90;9.20;;;6.50;99.90;;;;;;5052977;28;20199;-80
2024/02/01 03:05:16;;;;;;;15.47;8.77;;;6.50;99.90;;;;;;5051644;28;20195;-80
2024/02/01 03:07:43;;;;;;;13.10;8.50;;;6.50;99.90;;;;;;5057907;28;20602;-82
2024/02/01 03:10:10;;;;;;;14.73;9.20;;;6.50;99.90;;;;;;5053936;28;20289;-81
2024/02/01 03:12:40;;;;;;;13.90;9.03;;;6.50;99.90;;;;;;5050644;28;20199;-80
2024/02/01 03:15:09;;;;;;;16.37;9.77;;;6.70;99.90;;;;;;5050355;28;20199;-79
2024/02/01 03:17:37;;;;;;;16.07;9.50;;;6.40;99.90;;;;;;5051964;28;20314;-80
2024/02/01 03:20:17;;;;;;;15.53;10.43;;;6.40;99.90;;;;;;5050550;28;20222;-80
2024/02/01 03:22:46;;;;;;;15.13;9.87;;;6.50;99.90;;;;;;5049898;28;20199;-79
2024/02/01 03:25:12;;;;;;;17.23;9.97;;;6.40;99.90;;;;;;5053330;28;20245;-80
2024/02/01 03:27:43;;;;;;;16.53;9.83;;;6.50;99.90;;;;;;5052535;28;20223;-80
2024/02/01 03:30:15;;;;;;;15.13;9.83;;;6.50;99.90;;;;;;5059648;28;20252;-81
2024/02/01 03:32:41;;;;;;;17.00;10.27;;;6.50;99.90;;;;;;5053340;28;20705;-81
2024/02/01 03:35:09;;;;;;;16.13;10.00;;;6.50;99.90;;;;;;5054324;28;20567;-80
2024/02/01 03:37:36;;;;;;;15.40;9.40;;;6.50;99.90;;;;;;5044022;28;20222;-80
2024/02/01 03:40:04;;;;;;;13.03;8.87;;;6.50;99.90;;;;;;5046491;28;20469;-81
2024/02/01 03:42:31;;;;;;;16.13;9.63;;;6.50;99.90;;;;;;5053518;28;20218;-81
2024/02/01 03:44:58;;;;;;;14.43;9.67;;;6.50;99.90;;;;;;5044715;28;20210;-80
2024/02/01 03:47:26;;;;;;;16.63;10.73;;;6.50;99.90;;;;;;5052123;28;20215;-81
2024/02/01 03:49:53;;;;;;;15.47;9.87;;;6.60;99.90;;;;;;5047832;28;20291;-82
2024/02/01 03:52:20;;;;;;;17.07;10.47;;;6.50;99.90;;;;;;5053270;28;20207;-81
2024/02/01 03:54:47;;;;;;;16.70;10.73;;;6.50;99.90;;;;;;5055269;28;20203;-80
2024/02/01 03:57:16;;;;;;;19.70;10.53;;;6.50;99.90;;;;;;5050842;28;20238;-80
2024/02/01 03:59:44;;;;;;;17.77;11.23;;;6.50;99.90;;;;;;5053376;28;20628;-80
2024/02/01 04:02:14;;;;;;;17.23;11.10;;;6.50;99.90;;;;;;5049429;28;20199;-80
2024/02/01 04:04:45;;;;;;;16.00;11.10;;;6.40;99.90;;;;;;5053190;28;20571;-81
2024/02/01 04:07:16;;;;;;;17.83;11.37;;;6.40;99.90;;;;;;5052983;28;20566;-82
2024/02/01 04:09:43;;;;;;;16.47;10.73;;;6.40;99.90;;;;;;5050842;28;20206;-81
2024/02/01 04:12:10;;;;;;;16.40;10.73;;;6.40;99.90;;;;;;5051164;28;20572;-81
2024/02/01 04:14:37;;;;;;;16.90;11.57;;;6.50;99.90;;;;;;5051589;28;20199;-81
2024/02/01 04:17:04;;;;;;;17.70;11.23;;;6.50;99.90;;;;;;5054265;28;20214;-82
2024/02/01 04:19:31;;;;;;;18.60;12.20;;;6.50;99.90;;;;;;5052039;28;20205;-81
2024/02/01 04:21:59;;;;;;;19.47;12.63;;;6.60;99.90;;;;;;5047228;28;20200;-82
2024/02/01 04:24:26;;;;;;;18.77;11.67;;;6.60;99.90;;;;;;5047748;28;20229;-80
2024/02/01 04:26:53;;;;;;;17.80;11.60;;;6.60;99.90;;;;;;5045697;28;20231;-82
2024/02/01 04:29:20;;;;;;;16.60;10.70;;;6.60;99.90;;;;;;5050082;28;20280;-81
2024/02/01 04:31:46;;;;;;;17.17;11.47;;;6.60;99.90;;;;;;5046141;28;20290;-81
2024/02/01 04:34:13;;;;;;;17.40;11.13;;;6.60;99.90;;;;;;5051369;28;20203;-80
2024/02/01 04:36:40;;;;;;;20.23;11.43;;;6.60;99.90;;;;;;5051331;28;20223;-81
2024/02/01 04:39:08;;;;;;;17.47;11.23;;;6.60;99.90;;;;;;5053025;28;20790;-82
2024/02/01 04:41:38;;;;;;;17.07;11.07;;;6.60;99.90;;;;;;5052670;28;20203;-81
2024/02/01 04:44:07;;;;;;;16.67;10.57;;;6.60;99.90;;;;;;5053554;28;20252;-80
2024/02/01 04:46:34;;;;;;;18.03;12.37;;;6.60;99.90;;;;;;5056187;28;20223;-80
2024/02/01 04:49:02;;;;;;;17.03;11.00;;;6.60;99.90;;;;;;5051497;28;20661;-82
2024/02/01 04:51:30;;;;;;;16.70;10.27;;;6.60;99.90;;;;;;5048722;28;20211;-82
2024/02/01 04:53:57;;;;;;;15.40;9.83;;;6.60;99.90;;;;;;5053446;28;20269;-82
2024/02/01 04:56:25;;;;;;;17.77;11.17;;;6.60;99.90;;;;;;5050659;28;20290;-81
2024/02/01 04:58:52;;;;;;;15.73;10.27;;;6.60;99.90;;;;;;5059503;28;20227;-82
2024/02/01 05:01:19;;;;;;;15.47;9.93;;;6.60;99.90;;;;;;5057567;28;20649;-82
2024/02/01 05:03:46;;;;;;;14.60;9.63;;;6.60;99.90;;;;;;5054163;28;20199;-82
2024/02/01 05:06:13;;;;;;;15.63;10.10;;;6.60;99.90;;;;;;5053526;28;20309;-81
2024/02/01 05:08:40;;;;;;;16.23;9.53;;;6.60;99.90;;;;;;5050698;28;20606;-81
2024/02/01 05:11:10;;;;;;;15.33;9.97;;;6.60;99.90;;;;;;5054286;28;20210;-82
2024/02/01 05:13:38;;;;;;;15.40;9.57;;;6.50;99.90;;;;;;5050914;28;20213;-82
2024/02/01 05:16:06;;;;;;;15.90;9.27;;;6.60;99.90;;;;;;5058777;28;20619;-82
2024/02/01 05:18:33;;;;;;;13.57;8.43;;;6.60;99.90;;;;;;5050780;28;20227;-81
2024/02/01 05:20:59;;;;;;;13.17;8.80;;;6.60;99.90;;;;;;5037763;28;20214;-82
2024/02/01 05:23:26;;;;;;;13.13;8.53;;;6.60;99.90;;;;;;5045349;28;20308;-81
2024/02/01 05:25:53;;;;;;;12.90;8.63;;;6.60;99.90;;;;;;5045949;28;20222;-81
2024/02/01 05:28:22;;;;;;;12.40;8.03;;;6.60;99.90;;;;;;5053055;28;20195;-81
2024/02/01 05:30:51;;;;;;;11.93;7.80;;;6.60;99.90;;;;;;5040686;28;20203;-81
2024/02/01 05:33:18;;;;;;;11.93;7.93;;;6.60;99.90;;;;;;5048852;28;20725;-81
2024/02/01 05:35:45;;;;;;;12.43;8.37;;;6.60;99.90;;;;;;5053279;28;20199;-81
2024/02/01 05:38:12;;;;;;;12.47;7.97;;;6.80;99.90;;;;;;5041907;28;20219;-81
2024/02/01 05:40:38;;;;;;;13.07;8.10;;;6.60;99.90;;;;;;5042893;28;20203;-81
2024/02/01 05:43:05;;;;;;;11.50;7.43;;;6.60;99.90;;;;;;5043467;28;20226;-82
2024/02/01 05:45:33;;;;;;;12.17;7.50;;;6.70;99.90;;;;;;5043621;28;20199;-81
2024/02/01 05:48:03;;;;;;;11.50;7.90;;;6.80;99.90;;;;;;5043370;28;20257;-81
2024/02/01 05:50:30;;;;;;;11.70;7.63;;;6.90;99.90;;;;;;5047244;28;20210;-81
2024/02/01 05:52:57;;;;;;;13.37;7.40;;;6.90;99.90;;;;;;5050537;28;20199;-82
2024/02/01 05:55:24;;;;;;;12.17;7.97;;;7.00;99.90;;;;;;5048990;28;20211;-81
2024/02/01 05:57:51;;;;;;;13.53;8.47;;;7.10;99.90;;;;;;5049649;28;20223;-80
2024/02/01 06:00:21;;;;;;;12.93;8.07;;;7.20;99.90;;;;;;5050257;28;20199;-83
2024/02/01 06:02:49;;;;;;;14.30;7.80;;;7.20;99.90;;;;;;5056680;28;20203;-81
2024/02/01 06:05:19;;;;;;;11.40;7.83;;;7.10;99.90;;;;;;5055745;28;20293;-81
2024/02/01 06:07:45;;;;;;;12.20;7.47;;;7.10;99.90;;;;;;5051725;28;20300;-81
2024/02/01 06:10:12;;;;;;;12.50;7.57;;;7.10;99.90;;;;;;5052493;28;20567;-81
2024/02/01 06:12:39;;;;;;;11.77;7.17;;;7.00;99.90;;;;;;5049907;28;20782;-81
2024/02/01 06:15:07;;;;;;;12.07;7.00;;;7.00;99.90;;;;;;5051963;28;20210;-81
2024/02/01 06:17:34;;;;;;;11.10;7.00;;;6.90;99.90;;;;;;5051242;28;20223;-82
2024/02/01 06:20:00;;;;;;;13.23;7.83;;;6.80;99.90;;;;;;5047938;28;20595;-82
2024/02/01 06:22:28;;;;;;;11.73;7.13;;;6.80;99.90;;;;;;5035761;28;20203;-81
2024/02/01 06:24:55;;;;;;;12.73;7.23;;;6.70;99.90;;;;;;5044912;28;20210;-81
2024/02/01 06:27:22;;;;;;;12.70;7.07;;;6.70;99.90;;;;;;5051577;28;20215;-81
2024/02/01 06:29:49;;;;;;;11.23;6.77;;;6.60;99.90;;;;;;5050082;28;20545;-81
2024/02/01 06:32:19;;;;;;;11.53;6.67;;;6.60;99.90;;;;;;5049316;28;20203;-81
2024/02/01 06:34:53;;;;;;;14.60;7.70;;;6.60;99.90;;;;;;5045553;28;20200;-81
2024/02/01 06:37:21;;;;;;;12.30;6.37;;;6.40;99.90;;;;;;5042945;28;20228;-82
2024/02/01 06:40:10;;;;;;;14.50;6.67;;;6.40;99.90;;;;;;5055433;28;20214;-81
2024/02/01 06:42:54;;;;;;;11.03;6.27;;;6.40;99.90;;;;;;5051230;28;20229;-81
2024/02/01 06:45:28;;;;;;;11.40;6.70;;;6.40;99.90;;;;;;5045922;28;20239;-80
2024/02/01 06:48:04;;;;;;;16.33;6.83;;;6.50;99.90;;;;;;5051036;28;20707;-79
2024/02/01 06:50:46;;;;;;;13.30;6.20;;;6.30;99.90;;;;;;5052095;28;20211;-80
2024/02/01 06:53:19;;;;;;;14.37;6.33;;;6.30;99.90;;;;;;5050442;28;20854;-79
2024/02/01 06:55:57;;;;;;;12.23;5.53;;;6.20;99.90;;;;;;5055435;28;20289;-80
2024/02/01 06:58:38;;;;;;;16.70;6.50;;;6.20;99.90;;;;;;5051940;28;20222;-79
2024/02/01 07:01:24;;;;;;;13.73;6.70;;;6.10;99.90;;;;;;5050867;28;20206;-80
2024/02/01 07:04:07;;;;;;;15.13;6.37;;;6.10;99.90;;;;;;5055345;28;20206;-79
2024/02/01 07:06:39;;;;;;;12.33;5.40;;;6.10;99.90;;;;;;5050594;28;20513;-79
2024/02/01 07:09:27;;;;;;;11.87;5.67;;;6.10;99.90;;;;;;5052407;28;20318;-80
2024/02/01 07:12:15;;;;;;;11.77;5.07;;;6.00;99.90;;;;;;5052007;28;20282;-80
2024/02/01 07:14:48;;;;;;;10.43;6.27;;;6.10;99.90;;;;;;5061779;28;20215;-79
2024/02/01 07:17:28;;;;;;;11.87;5.60;;;6.00;99.90;;;;;;5066172;28;20257;-79
2024/02/01 07:19:56;;;;;;;11.70;5.00;;;6.00;99.90;;;;;;5051890;28;20227;-80
2024/02/01 07:23:00;;;;;;;11.70;4.73;;;6.00;99.90;;;;;;5037746;28;20203;-80
2024/02/01 07:25:47;;;;;;;12.63;5.00;;;6.00;99.90;;;;;;5045945;28;20203;-82
2024/02/01 07:58:39;;;;;;;13.97;4.07;;;6.00;99.90;;;;;;5006442;28;20801;-80
2024/02/01 08:01:17;;;;;;;19.13;3.87;;;6.00;99.90;;;;;;5048114;28;20205;-80
2024/02/01 08:03:59;;;;;;;11.03;3.50;;;6.10;99.90;;;;;;5048120;28;20222;-80
2024/02/01 08:09:13;;;;;;;14.13;3.53;;;6.10;99.90;;;;;;5050153;28;20570;-81
2024/02/01 08:11:41;;;;;;;17.70;4.07;;;6.10;99.90;;;;;;5049961;28;20209;-81
2024/02/01 08:14:09;;;;;;;12.03;4.17;;;6.40;26.40;;;;;;5052198;28;20191;-80
2024/02/01 08:16:39;;;;;;;17.70;4.20;;;6.30;1.00;;;;;;5051201;28;20223;-80
2024/02/01 08:19:06;;;;;;;15.67;4.20;;;6.20;1.00;;;;;;5048292;28;20215;-80
2024/02/01 08:21:37;;;;;;;16.43;3.93;;;6.20;1.00;;;;;;5051948;28;20253;-79
2024/02/01 08:24:05;;;;;;;14.70;3.30;;;6.30;1.00;;;;;;5047555;28;20203;-81
2024/02/01 08:26:37;;;;;;;19.87;4.83;;;6.30;1.00;;;;;;5047985;28;20775;-80
2024/02/01 08:29:06;;;;;;;15.50;2.93;;;6.30;99.90;;;;;;5037956;28;20306;-80
2024/02/01 08:31:36;;;;;;;13.60;3.20;;;6.30;99.90;;;;;;5044326;28;20661;-81
2024/02/01 08:34:07;;;;;;;19.37;4.40;;;6.30;16.70;;;;;;5045955;28;20199;-81
2024/02/01 08:36:34;;;;;;;15.73;3.53;;;6.20;1.00;;;;;;5049677;28;20645;-80
2024/02/01 08:39:00;;;;;;;18.43;4.27;;;6.40;99.90;;;;;;5045914;28;20227;-81
2024/02/01 08:41:35;;;;;;;13.20;3.23;;;6.50;1.00;;;;;;5048231;28;20203;-80
2024/02/01 08:44:02;;;;;;;13.50;3.17;;;6.50;1.00;;;;;;5039934;28;20668;-80
2024/02/01 08:46:29;;;;;;;11.93;2.67;;;6.70;99.90;;;;;;5040396;28;20694;-80
2024/02/01 08:48:55;;;;;;;21.90;3.63;;;6.60;1.00;;;;;;5043892;28;20214;-79
2024/02/01 08:51:24;;;;;;;20.17;3.33;;;6.60;1.00;;;;;;5041997;28;20223;-81
2024/02/01 08:53:52;;;;;;;24.17;3.63;;;6.60;1.00;;;;;;5049626;28;20204;-80
2024/02/01 08:56:20;;;;;;;15.50;3.23;;;6.50;1.00;;;;;;5048032;28;20255;-80
2024/02/01 08:58:47;;;;;;;19.50;3.70;;;6.80;1.00;;;;;;5046541;28;20223;-80
2024/02/01 09:01:22;;;;;;;18.07;2.93;;;6.80;1.00;;;;;;5046186;28;20199;-81
2024/02/01 09:03:49;;;;;;;15.90;3.63;;;6.70;1.00;;;;;;5049241;28;20294;-81
2024/02/01 09:06:17;;;;;;;16.87;3.67;;;6.90;99.90;;;;;;5051581;28;20231;-80
2024/02/01 09:08:45;;;;;;;20.53;3.47;;;6.80;1.00;;;;;;5050465;28;20297;-80
2024/02/01 09:11:14;;;;;;;19.00;4.03;;;7.00;1.00;;;;;;5053444;28;20195;-80
2024/02/01 09:13:43;;;;;;;16.43;3.63;;;7.10;99.90;;;;;;5049682;28;20207;-82
2024/02/01 09:16:11;;;;;;;21.37;2.97;;;7.40;99.90;;;;;;5048560;28;20243;-80
2024/02/01 09:18:38;;;;;;;14.63;3.60;;;8.10;1.00;;;;;;5050975;28;20207;-80
2024/02/01 09:21:05;;;;;;;12.90;3.07;;;8.50;1.00;;;;;;5050536;28;20195;-80
2024/02/01 09:23:32;;;;;;;13.57;2.87;;;7.90;99.90;;;;;;5053140;28;20253;-79
2024/02/01 09:26:00;;;;;;;23.30;3.53;;;8.20;99.90;;;;;;5051527;28;20231;-81
2024/02/01 09:28:27;;;;;;;18.20;3.57;;;8.60;1.00;;;;;;5052476;28;20199;-80
2024/02/01 09:30:55;;;;;;;21.40;3.47;;;8.00;1.00;;;;;;5051552;28;20211;-81
2024/02/01 09:33:24;;;;;;;18.70;3.67;;;7.70;1.00;;;;;;5042473;28;20207;-80
2024/02/01 09:35:52;;;;;;;16.63;3.07;;;8.20;1.00;;;;;;5044587;28;20209;-79
2024/02/01 09:38:19;;;;;;;16.83;3.00;;;7.60;1.00;;;;;;5038081;28;20249;-81
2024/02/01 09:40:47;;;;;;;17.63;3.37;;;7.40;1.00;;;;;;5040031;28;20223;-80
2024/02/01 09:43:21;;;;;;;16.77;2.90;;;7.60;1.00;;;;;;5049798;28;20652;-80
2024/02/01 09:45:49;;;;;;;17.63;3.30;;;7.70;1.00;;;;;;5054859;28;20214;-80
2024/02/01 09:48:17;;;;;;;18.83;3.33;;;7.70;1.00;;;;;;5045384;28;20330;-79
2024/02/01 09:50:54;;;;;;;20.07;3.80;;;7.80;99.90;;;;;;5050957;28;20542;-81
2024/02/01 09:53:22;;;;;;;14.43;3.30;;;7.70;99.90;;;;;;5047340;28;20633;-79
2024/02/01 09:55:50;;;;;;;22.87;4.20;;;7.50;99.90;;;;;;5052721;28;20290;-80
2024/02/01 09:58:18;;;;;;;15.13;2.90;;;7.60;99.90;;;;;;5045654;28;20610;-80
2024/02/01 10:00:45;;;;;;;23.90;4.70;;;7.40;99.90;;;;;;5056444;28;20219;-80
2024/02/01 10:03:13;;;;;;;17.43;3.30;;;7.70;99.90;;;;;;5051626;28;20203;-80
2024/02/01 10:05:40;;;;;;;19.57;3.67;;;8.30;99.90;;;;;;5046071;28;20200;-81
2024/02/01 10:08:11;;;;;;;16.50;3.33;;;7.80;99.90;;;;;;5054437;28;20301;-81
2024/02/01 10:10:39;;;;;;;19.20;3.93;;;8.00;99.90;;;;;;5055383;28;20682;-79
2024/02/01 10:13:07;;;;;;;16.13;3.53;;;8.00;99.90;;;;;;5056547;28;20641;-79
2024/02/01 10:15:37;;;;;;;19.07;3.13;;;7.80;99.90;;;;;;5053288;28;20210;-80
2024/02/01 10:18:07;;;;;;;16.70;3.13;;;7.80;92.60;;;;;;5056694;28;20207;-80
2024/02/01 10:20:39;;;;;;;19.90;4.50;;;7.90;95.30;;;;;;5055356;28;20732;-82
2024/02/01 10:23:07;;;;;;;17.57;3.50;;;7.90;70.30;;;;;;5053099;28;20214;-79
2024/02/01 10:25:38;;;;;;;16.33;3.50;;;7.90;1.00;;;;;;5052582;28;20209;-80
2024/02/01 10:28:07;;;;;;;15.70;2.97;;;8.20;1.00;;;;;;5052690;28;20207;-80
2024/02/01 10:30:39;;;;;;;19.57;3.27;;;8.20;1.00;;;;;;5056081;28;20731;-80
2024/02/01 10:33:07;;;;;;;16.23;3.30;;;8.40;1.00;;;;;;5055144;28;20218;-80
2024/02/01 10:35:35;;;;;;;17.77;2.90;;;8.50;1.00;;;;;;5054873;28;20203;-81
2024/02/01 10:38:11;;;;;;;17.27;3.33;;;8.50;1.00;;;;;;5055289;28;20233;-80
2024/02/01 10:40:45;;;;;;;19.60;2.97;;;8.40;1.00;;;;;;5044576;28;20258;-81
2024/02/01 10:43:18;;;;;;;11.40;3.30;;;8.60;1.00;;;;;;5054710;28;20271;-81
2024/02/01 10:45:50;;;;;;;20.67;3.70;;;8.70;1.00;;;;;;5055912;28;20218;-80
2024/02/01 10:48:21;;;;;;;14.47;3.13;;;8.90;1.00;;;;;;5048621;28;20704;-81
2024/02/01 10:50:49;;;;;;;16.20;3.97;;;8.50;1.00;;;;;;5050296;28;20207;-80
2024/02/01 10:53:17;;;;;;;12.80;3.20;;;8.30;1.00;;;;;;5048172;28;20202;-80
2024/02/01 10:55:48;;;;;;;19.27;3.33;;;8.00;1.00;;;;;;5052188;28;20605;-80
2024/02/01 10:58:19;;;;;;;13.93;3.23;;;7.90;1.00;;;;;;5053377;28;20574;-80
2024/02/01 11:00:48;;;;;;;18.87;3.53;;;7.80;1.00;;;;;;5052774;28;20838;-82
2024/02/01 11:03:16;;;;;;;14.23;2.93;;;8.30;1.00;;;;;;5055245;28;20199;-79
2024/02/01 11:05:44;;;;;;;17.70;3.53;;;8.30;1.00;;;;;;5051989;28;20286;-79
2024/02/01 11:08:15;;;;;;;16.73;3.00;;;8.10;1.00;;;;;;5056470;28;20238;-80
2024/02/01 11:10:51;;;;;;;14.40;3.10;;;8.20;1.00;;;;;;5053447;28;20195;-80
2024/02/01 11:13:27;;;;;;;11.00;2.67;;;8.10;1.00;;;;;;5054948;28;20669;-80
2024/02/01 11:15:56;;;;;;;15.13;3.40;;;8.20;1.00;;;;;;5057522;28;20566;-80
2024/02/01 11:18:24;;;;;;;18.97;3.37;;;8.10;1.00;;;;;;5057307;28;20674;-80
2024/02/01 11:20:57;;;;;;;16.23;3.60;;;8.20;1.00;;;;;;5052271;28;20228;-80
2024/02/01 11:23:25;;;;;;;18.30;3.43;;;8.30;1.00;;;;;;5047015;28;20207;-80
2024/02/01 11:26:00;;;;;;;16.27;4.97;;;8.10;1.00;;;;;;5050463;28;20207;-80
2024/02/01 11:28:30;;;;;;;19.07;3.03;;;8.00;1.00;;;;;;5050029;28;20221;-81
2024/02/01 11:31:03;;;;;;;19.63;3.57;;;8.10;1.00;;;;;;5051384;28;20199;-81
2024/02/01 11:33:33;;;;;;;20.37;4.00;;;7.90;1.00;;;;;;5056574;28;20203;-80
2024/02/01 11:36:00;;;;;;;12.73;3.33;;;7.90;1.00;;;;;;5053787;28;20238;-80
2024/02/01 11:38:28;;;;;;;12.23;3.53;;;8.10;1.00;;;;;;5054177;28;20219;-80
2024/02/01 11:40:54;;;;;;;14.03;4.27;;;8.30;1.00;;;;;;5052772;28;20227;-81
2024/02/01 11:43:22;;;;;;;13.43;3.70;;;8.50;1.00;;;;;;5054613;28;20200;-80
2024/02/01 11:45:55;;;;;;;20.23;3.83;;;8.60;1.00;;;;;;5046765;28;20660;-80
2024/02/01 11:48:24;;;;;;;15.90;3.63;;;8.70;1.00;;;;;;5046253;28;20285;-80
2024/02/01 11:50:56;;;;;;;17.60;4.10;;;8.80;1.00;;;;;;5047008;28;20651;-82
2024/02/01 11:53:24;;;;;;;16.20;3.83;;;8.90;1.00;;;;;;5050642;28;20278;-82
2024/02/01 11:55:54;;;;;;;13.97;3.40;;;8.90;1.00;;;;;;5048336;28;20208;-81
2024/02/01 11:58:22;;;;;;;18.23;3.30;;;9.20;1.00;;;;;;5048871;28;20203;-81
2024/02/01 12:00:50;;;;;;;15.10;3.33;;;9.20;1.00;;;;;;5054483;28;20674;-80
2024/02/01 12:03:19;;;;;;;12.93;3.50;;;9.10;99.90;;;;;;5049970;28;20544;-80
2024/02/01 12:05:47;;;;;;;14.90;3.87;;;9.20;99.90;;;;;;5048645;28;20238;-81
2024/02/01 12:08:14;;;;;;;27.13;3.93;;;9.50;99.90;;;;;;5050927;28;20215;-81
2024/02/01 12:10:45;;;;;;;13.10;2.87;;;9.70;99.90;;;;;;5054276;28;20199;-80
2024/02/01 12:13:15;;;;;;;15.70;3.03;;;9.50;99.90;;;;;;5053054;28;20286;-81
2024/02/01 12:15:43;;;;;;;19.70;4.23;;;9.80;99.90;;;;;;5052779;28;20710;-80
2024/02/01 12:18:12;;;;;;;9.57;3.23;;;9.80;99.90;;;;;;5058132;28;20209;-81
2024/02/01 12:20:42;;;;;;;16.70;3.57;;;9.80;99.90;;;;;;5051528;28;20738;-80
2024/02/01 12:23:12;;;;;;;12.83;3.67;;;10.40;99.90;;;;;;5045472;28;20290;-79
2024/02/01 12:25:40;;;;;;;15.47;3.87;;;10.40;99.90;;;;;;5049103;28;20207;-79
2024/02/01 12:28:11;;;;;;;11.77;2.60;;;9.90;99.90;;;;;;5043808;28;20200;-80
2024/02/01 12:30:41;;;;;;;14.50;3.80;;;9.50;99.90;;;;;;5048486;28;20211;-79
2024/02/01 12:33:12;;;;;;;18.50;4.30;;;9.20;99.90;;;;;;5049116;28;20290;-80
2024/02/01 12:35:41;;;;;;;12.97;3.73;;;9.30;99.90;;;;;;5050723;28;20242;-80
2024/02/01 12:38:10;;;;;;;15.77;3.40;;;9.90;99.90;;;;;;5048669;28;20319;-81
2024/02/01 12:40:38;;;;;;;15.93;3.50;;;9.10;99.90;;;;;;5053049;28;20286;-81
2024/02/01 12:43:05;;;;;;;15.60;2.90;;;9.00;99.90;;;;;;5050660;28;20199;-81
2024/02/01 12:45:32;;;;;;;18.47;3.27;;;8.70;99.90;;;;;;5054410;28;20214;-82
2024/02/01 12:47:59;;;;;;;14.23;3.73;;;9.20;99.90;;;;;;5049694;28;20219;-80
2024/02/01 12:50:26;;;;;;;14.60;3.37;;;8.70;99.90;;;;;;5049395;28;20262;-81
2024/02/01 12:52:53;;;;;;;21.27;3.10;;;9.50;99.90;;;;;;5048370;28;20204;-81
2024/02/01 12:55:21;;;;;;;19.80;3.60;;;8.90;99.90;;;;;;5043440;28;20203;-80
2024/02/01 12:57:48;;;;;;;16.00;3.33;;;9.00;99.90;;;;;;5048531;28;20262;-80
2024/02/01 13:00:16;;;;;;;21.60;3.23;;;9.00;99.90;;;;;;5049940;28;20222;-80
2024/02/01 13:02:44;;;;;;;13.30;3.63;;;9.20;99.90;;;;;;5048758;28;20200;-80
2024/02/01 13:05:11;;;;;;;11.93;2.83;;;9.30;99.90;;;;;;5056527;28;20248;-78
2024/02/01 13:07:39;;;;;;;16.30;3.60;;;8.70;99.90;;;;;;5047379;28;20285;-80
2024/02/01 13:10:07;;;;;;;16.47;3.40;;;8.40;99.90;;;;;;5053415;28;20216;-79
2024/02/01 13:12:36;;;;;;;18.80;3.80;;;8.10;99.90;;;;;;5050880;28;20641;-80
2024/02/01 13:15:05;;;;;;;18.13;4.97;;;8.20;99.90;;;;;;5050225;28;20209;-81
2024/02/01 13:17:35;;;;;;;15.00;4.50;;;8.30;99.90;;;;;;5052534;28;20231;-80
2024/02/01 13:20:18;;;;;;;17.03;4.13;;;8.30;99.90;;;;;;5046916;28;20280;-81
2024/02/01 13:22:45;;;;;;;16.07;3.57;;;8.30;99.90;;;;;;5049360;28;20207;-81
2024/02/01 13:25:18;;;;;;;12.07;2.80;;;8.90;99.90;;;;;;5049290;28;20203;-80
2024/02/01 13:27:47;;;;;;;13.17;4.20;;;9.80;99.90;;;;;;5050033;28;20313;-81
2024/02/01 13:30:15;;;;;;;14.63;3.90;;;10.00;99.90;;;;;;5049245;28;20203;-80